Time;durP1;ratioP1;P1;durP2;ratioP2;P2;SDS_P1;SDS_P2;PMS_P1;PMS_P2;Temp;Humidity;BMP_temperature;BMP_pressure;BME280_temperature;BME280_humidity;BME280_pressure;Samples;Min_cycle;Max_cycle;Signal;HPM_P1;HPM_P2
2020/12/18 00:01:27;;;;;;;21.93;11.57;;;5.90;99.90;;;;;;5028624;28;20796;-73
2020/12/18 00:03:53;;;;;;;23.97;12.63;;;5.90;99.90;;;;;;5021206;28;20439;-74
2020/12/18 00:06:20;;;;;;;29.13;12.10;;;5.90;99.90;;;;;;5008459;28;20448;-74
2020/12/18 00:08:46;;;;;;;23.80;12.50;;;5.90;99.90;;;;;;5009432;28;20421;-73
2020/12/18 00:11:19;;;;;;;19.07;11.30;;;5.80;99.90;;;;;;5007667;28;20467;-74
2020/12/18 00:13:45;;;;;;;26.90;11.90;;;5.80;99.90;;;;;;5008377;28;20421;-74
2020/12/18 00:16:11;;;;;;;21.77;11.27;;;5.80;99.90;;;;;;5008460;28;20435;-72
2020/12/18 00:18:37;;;;;;;18.83;11.10;;;5.80;99.90;;;;;;5008430;28;20193;-72
2020/12/18 00:21:03;;;;;;;26.27;13.63;;;5.70;99.90;;;;;;5025418;28;20451;-73
2020/12/18 00:23:28;;;;;;;20.60;12.90;;;5.70;99.90;;;;;;5027567;28;20199;-71
2020/12/18 00:25:54;;;;;;;26.87;13.43;;;5.70;99.90;;;;;;5028058;28;20248;-74
2020/12/18 00:28:20;;;;;;;30.57;14.30;;;5.70;99.90;;;;;;5029007;28;20295;-73
2020/12/18 00:30:48;;;;;;;23.20;11.80;;;5.70;99.90;;;;;;5027038;28;20231;-73
2020/12/18 00:33:14;;;;;;;22.80;12.77;;;5.60;99.90;;;;;;5015928;28;20562;-74
2020/12/18 00:35:40;;;;;;;24.03;13.30;;;5.70;99.90;;;;;;5029892;28;20428;-70
2020/12/18 00:38:06;;;;;;;23.23;12.53;;;5.70;99.90;;;;;;5033594;28;20189;-71
2020/12/18 00:40:32;;;;;;;25.60;14.03;;;5.70;99.90;;;;;;5035489;28;20590;-70
2020/12/18 00:42:57;;;;;;;26.00;13.23;;;5.70;99.90;;;;;;5034737;28;20304;-73
2020/12/18 00:45:23;;;;;;;27.93;12.83;;;5.60;99.90;;;;;;5030696;28;20219;-70
2020/12/18 00:47:49;;;;;;;23.90;13.77;;;5.60;99.90;;;;;;5030670;28;20196;-72
2020/12/18 00:50:15;;;;;;;23.87;12.40;;;5.60;99.90;;;;;;5030847;28;20439;-72
2020/12/18 00:52:41;;;;;;;25.80;14.00;;;5.50;99.90;;;;;;5032113;28;20216;-73
2020/12/18 00:55:07;;;;;;;24.20;11.70;;;5.40;99.90;;;;;;5031877;28;20810;-74
2020/12/18 00:57:33;;;;;;;25.90;13.17;;;5.40;99.90;;;;;;5030588;28;20739;-74
2020/12/18 00:59:59;;;;;;;23.83;11.50;;;5.40;99.90;;;;;;5032143;28;20467;-72
2020/12/18 01:02:24;;;;;;;23.50;12.23;;;5.40;99.90;;;;;;5030593;28;20236;-73
2020/12/18 01:04:52;;;;;;;21.73;12.73;;;5.40;99.90;;;;;;5031099;28;20192;-75
2020/12/18 01:07:18;;;;;;;21.47;12.67;;;5.40;99.90;;;;;;5012131;28;20186;-73
2020/12/18 01:09:43;;;;;;;26.03;13.60;;;5.40;99.90;;;;;;5025979;28;20432;-74
2020/12/18 01:12:12;;;;;;;28.87;14.37;;;5.40;99.90;;;;;;5031890;28;20547;-74
2020/12/18 01:14:41;;;;;;;23.43;13.40;;;5.40;99.90;;;;;;5031456;28;20452;-70
2020/12/18 01:17:08;;;;;;;22.23;12.37;;;5.40;99.90;;;;;;5031820;28;20428;-73
2020/12/18 01:19:36;;;;;;;25.90;13.50;;;5.40;99.90;;;;;;5032402;28;20990;-74
2020/12/18 01:22:02;;;;;;;29.83;14.20;;;5.40;99.90;;;;;;5032891;28;20439;-74
2020/12/18 01:24:28;;;;;;;30.17;13.20;;;5.50;99.90;;;;;;5037337;28;20423;-73
2020/12/18 01:26:53;;;;;;;25.67;13.80;;;5.50;99.90;;;;;;5038485;28;20734;-74
2020/12/18 01:29:19;;;;;;;23.57;13.40;;;5.50;99.90;;;;;;5039188;28;20193;-73
2020/12/18 01:31:45;;;;;;;24.43;14.20;;;5.50;99.90;;;;;;5030734;28;20221;-71
2020/12/18 01:34:11;;;;;;;24.53;13.73;;;5.60;99.90;;;;;;5032229;28;20664;-73
2020/12/18 01:36:36;;;;;;;30.20;13.63;;;5.60;99.90;;;;;;5031547;28;20193;-73
2020/12/18 01:39:04;;;;;;;19.80;12.30;;;5.70;99.90;;;;;;5030559;28;20216;-73
2020/12/18 01:41:29;;;;;;;21.63;11.97;;;5.70;99.90;;;;;;5031096;28;20201;-74
2020/12/18 01:43:55;;;;;;;23.77;13.33;;;5.80;99.90;;;;;;5031405;28;20538;-71
2020/12/18 01:46:26;;;;;;;19.30;10.90;;;5.80;99.90;;;;;;5028969;28;20729;-74
2020/12/18 01:48:52;;;;;;;21.30;11.97;;;5.80;99.90;;;;;;5031313;28;20242;-74
2020/12/18 01:51:18;;;;;;;24.97;13.77;;;5.80;99.70;;;;;;5031132;28;20448;-73
2020/12/18 01:53:44;;;;;;;25.40;13.30;;;5.90;99.50;;;;;;5031380;28;20795;-75
2020/12/18 01:56:12;;;;;;;26.73;13.90;;;5.90;99.40;;;;;;5028767;28;20531;-72
2020/12/18 01:58:40;;;;;;;24.50;13.93;;;5.90;99.50;;;;;;5031485;28;20937;-71
2020/12/18 02:01:09;;;;;;;25.23;14.70;;;5.90;99.60;;;;;;5029886;28;20480;-71
2020/12/18 02:03:35;;;;;;;23.00;13.73;;;5.90;99.60;;;;;;5032069;28;20466;-72
2020/12/18 02:06:06;;;;;;;24.60;13.20;;;5.90;99.70;;;;;;5030956;28;20416;-73
2020/12/18 02:08:32;;;;;;;20.40;11.90;;;5.90;99.70;;;;;;5032392;28;20435;-73
2020/12/18 02:10:59;;;;;;;26.80;12.23;;;5.90;99.70;;;;;;5037692;28;20469;-71
2020/12/18 02:13:26;;;;;;;24.90;13.30;;;5.90;99.60;;;;;;5037248;28;20443;-74
2020/12/18 02:15:55;;;;;;;21.97;12.20;;;5.90;99.50;;;;;;5038921;28;20442;-72
2020/12/18 02:18:23;;;;;;;23.33;12.50;;;5.80;99.40;;;;;;5043784;28;20467;-71
2020/12/18 02:20:50;;;;;;;23.30;12.63;;;5.80;99.40;;;;;;5034735;28;20503;-71
2020/12/18 02:23:16;;;;;;;25.20;11.80;;;5.70;99.50;;;;;;5034583;28;20424;-74
2020/12/18 02:25:42;;;;;;;26.43;12.53;;;5.70;99.60;;;;;;5023489;28;20439;-72
2020/12/18 02:28:11;;;;;;;24.97;13.50;;;5.70;99.80;;;;;;5039904;28;20193;-71
2020/12/18 02:30:39;;;;;;;26.67;13.47;;;5.70;99.80;;;;;;5036517;28;20451;-70
2020/12/18 02:33:08;;;;;;;29.33;15.07;;;5.70;99.80;;;;;;5032663;28;20423;-75
2020/12/18 02:35:34;;;;;;;24.83;12.90;;;5.70;99.70;;;;;;5018072;28;20523;-73
2020/12/18 02:38:02;;;;;;;22.70;12.50;;;5.60;99.80;;;;;;5017666;28;20451;-73
2020/12/18 02:40:28;;;;;;;30.50;13.27;;;5.70;99.80;;;;;;5028555;28;20331;-73
2020/12/18 02:42:54;;;;;;;30.40;13.97;;;5.70;99.70;;;;;;5028978;28;20570;-73
2020/12/18 02:45:19;;;;;;;21.20;11.77;;;5.60;99.70;;;;;;5028583;28;20216;-72
2020/12/18 02:47:46;;;;;;;24.33;13.10;;;5.60;99.70;;;;;;5029968;28;20184;-73
2020/12/18 02:50:11;;;;;;;25.07;12.47;;;5.70;99.70;;;;;;5030554;28;20455;-73
2020/12/18 02:52:38;;;;;;;24.23;12.27;;;5.70;99.70;;;;;;5016733;28;20473;-72
2020/12/18 02:55:04;;;;;;;24.87;12.17;;;5.70;99.60;;;;;;5029527;28;20428;-72
2020/12/18 02:57:30;;;;;;;22.67;12.73;;;5.60;99.40;;;;;;5029770;28;20447;-71
2020/12/18 02:59:55;;;;;;;23.80;14.00;;;5.60;99.30;;;;;;5030032;28;20529;-72
2020/12/18 03:02:21;;;;;;;22.73;12.67;;;5.60;99.30;;;;;;5030260;28;20219;-74
2020/12/18 03:04:47;;;;;;;28.97;13.00;;;5.50;99.40;;;;;;5029075;28;20235;-71
2020/12/18 03:07:13;;;;;;;20.53;10.97;;;5.50;99.60;;;;;;5030249;28;20292;-73
2020/12/18 03:09:39;;;;;;;26.87;13.43;;;5.60;99.60;;;;;;5017922;28;20618;-71
2020/12/18 03:12:06;;;;;;;26.30;12.00;;;5.60;99.70;;;;;;5029940;28;20479;-73
2020/12/18 03:14:32;;;;;;;19.17;10.70;;;5.60;99.70;;;;;;5029653;28;21112;-70
2020/12/18 03:16:58;;;;;;;23.40;12.47;;;5.70;99.70;;;;;;5020955;28;20519;-71
2020/12/18 03:19:24;;;;;;;19.70;11.13;;;5.70;99.60;;;;;;5012248;28;20900;-71
2020/12/18 03:21:49;;;;;;;22.03;12.20;;;5.70;99.50;;;;;;5022410;28;20712;-71
2020/12/18 03:24:15;;;;;;;25.90;11.80;;;5.80;99.50;;;;;;5009733;28;20189;-72
2020/12/18 03:26:41;;;;;;;17.57;10.70;;;5.90;99.50;;;;;;5009967;28;20182;-72
2020/12/18 03:29:07;;;;;;;19.13;11.50;;;5.90;99.40;;;;;;5009398;28;20804;-71
2020/12/18 03:31:33;;;;;;;20.13;10.77;;;6.00;99.30;;;;;;5028105;28;20216;-70
2020/12/18 03:33:59;;;;;;;22.93;12.30;;;6.00;99.20;;;;;;5016837;28;20190;-69
2020/12/18 03:36:24;;;;;;;30.03;13.60;;;6.10;99.00;;;;;;5020610;28;20460;-73
2020/12/18 03:38:50;;;;;;;29.70;15.10;;;6.10;98.10;;;;;;5021309;28;20448;-70
2020/12/18 03:41:16;;;;;;;22.53;12.77;;;6.00;97.80;;;;;;5027592;28;20216;-72
2020/12/18 03:43:43;;;;;;;22.13;13.30;;;6.00;97.80;;;;;;5029634;28;20616;-72
2020/12/18 03:46:11;;;;;;;25.43;12.97;;;6.10;97.70;;;;;;5018754;28;20264;-73
2020/12/18 03:48:36;;;;;;;27.00;14.30;;;6.10;97.50;;;;;;5030289;28;20428;-71
2020/12/18 03:51:02;;;;;;;21.43;12.53;;;6.00;97.60;;;;;;5029234;28;20447;-70
2020/12/18 03:53:28;;;;;;;24.27;13.77;;;6.00;97.60;;;;;;5029368;28;20185;-71
2020/12/18 03:55:54;;;;;;;26.93;14.80;;;6.10;97.70;;;;;;5016186;28;20189;-73
2020/12/18 03:58:19;;;;;;;26.00;13.13;;;6.10;97.60;;;;;;5028611;28;20193;-71
2020/12/18 04:00:45;;;;;;;25.30;14.80;;;6.10;97.60;;;;;;5029588;28;20248;-69
2020/12/18 04:03:11;;;;;;;23.17;13.10;;;6.10;97.70;;;;;;5030971;28;20185;-73
2020/12/18 04:05:37;;;;;;;22.37;12.90;;;6.10;97.70;;;;;;5027950;28;20189;-71
2020/12/18 04:08:02;;;;;;;20.97;12.40;;;6.20;97.60;;;;;;5030532;28;20420;-72
2020/12/18 04:10:28;;;;;;;23.50;13.53;;;6.20;97.70;;;;;;5039852;28;20204;-73
2020/12/18 04:12:54;;;;;;;30.00;13.63;;;6.20;97.80;;;;;;5046281;28;20189;-71
2020/12/18 04:15:20;;;;;;;21.80;13.70;;;6.30;97.80;;;;;;5046705;28;20397;-70
2020/12/18 04:17:45;;;;;;;19.90;11.33;;;6.30;97.80;;;;;;5047525;28;20205;-72
2020/12/18 04:20:12;;;;;;;21.70;10.50;;;6.30;97.60;;;;;;5046381;28;20292;-72
2020/12/18 04:22:38;;;;;;;21.40;12.20;;;6.40;97.20;;;;;;5046310;28;20248;-70
2020/12/18 04:25:04;;;;;;;21.60;11.93;;;6.40;97.00;;;;;;5075468;28;20467;-71
2020/12/18 04:27:30;;;;;;;24.60;11.63;;;6.50;96.80;;;;;;5048959;28;20674;-71
2020/12/18 04:29:55;;;;;;;20.07;11.60;;;6.50;96.70;;;;;;5054365;28;20446;-72
2020/12/18 04:32:21;;;;;;;22.83;12.40;;;6.50;96.80;;;;;;5041084;28;20239;-73
2020/12/18 04:34:47;;;;;;;19.03;11.20;;;6.40;96.90;;;;;;5036376;28;20204;-76
2020/12/18 04:37:13;;;;;;;19.73;10.60;;;6.40;97.00;;;;;;5036830;28;20432;-73
2020/12/18 04:39:39;;;;;;;24.40;12.10;;;6.50;97.20;;;;;;5037429;28;20213;-72
2020/12/18 04:42:04;;;;;;;22.37;11.33;;;6.50;97.40;;;;;;5035632;28;20247;-71
2020/12/18 04:44:30;;;;;;;24.70;11.73;;;6.40;97.10;;;;;;5028068;28;20215;-70
2020/12/18 04:46:58;;;;;;;20.90;11.47;;;6.40;96.90;;;;;;5031737;28;20197;-73
2020/12/18 04:49:25;;;;;;;24.00;12.13;;;6.20;96.80;;;;;;5032828;28;20455;-75
2020/12/18 04:51:53;;;;;;;24.73;12.20;;;6.10;97.00;;;;;;5032741;28;20462;-72
2020/12/18 04:54:22;;;;;;;20.40;10.77;;;6.10;97.10;;;;;;5020795;28;20427;-73
2020/12/18 04:56:51;;;;;;;18.87;11.50;;;6.00;97.30;;;;;;5033726;28;20443;-74
2020/12/18 04:59:22;;;;;;;18.67;12.13;;;6.00;97.40;;;;;;5041157;28;20462;-75
2020/12/18 05:01:48;;;;;;;26.07;12.50;;;6.00;97.70;;;;;;5037793;28;20443;-74
2020/12/18 05:04:16;;;;;;;21.60;12.83;;;6.00;97.80;;;;;;5036674;28;20914;-74
2020/12/18 05:06:42;;;;;;;22.70;11.40;;;5.90;97.90;;;;;;5051512;28;20521;-74
2020/12/18 05:09:08;;;;;;;22.67;12.97;;;5.90;98.10;;;;;;5038917;28;20470;-73
2020/12/18 05:11:33;;;;;;;22.90;12.83;;;5.90;98.10;;;;;;5037651;28;20519;-74
2020/12/18 05:13:59;;;;;;;25.90;14.17;;;5.80;98.30;;;;;;5035055;28;20243;-71
2020/12/18 05:16:25;;;;;;;20.10;12.10;;;5.90;98.40;;;;;;5035098;28;20201;-73
2020/12/18 05:18:52;;;;;;;27.97;12.80;;;5.80;98.40;;;;;;5035659;28;20185;-72
2020/12/18 05:21:18;;;;;;;25.60;12.20;;;5.80;98.60;;;;;;5033753;28;20849;-73
2020/12/18 05:23:45;;;;;;;22.43;12.43;;;5.90;98.80;;;;;;5035428;28;20515;-73
2020/12/18 05:26:13;;;;;;;26.30;13.90;;;5.90;98.90;;;;;;5036714;28;20452;-72
2020/12/18 05:28:43;;;;;;;22.93;12.70;;;5.90;98.90;;;;;;5034513;28;20526;-74
2020/12/18 05:31:17;;;;;;;24.13;13.60;;;6.00;99.00;;;;;;5034349;28;20533;-73
2020/12/18 05:33:46;;;;;;;26.17;12.97;;;6.00;99.00;;;;;;5031203;28;20456;-73
2020/12/18 05:36:12;;;;;;;23.30;12.37;;;6.10;99.10;;;;;;5030815;28;20442;-75
2020/12/18 05:38:39;;;;;;;21.33;11.73;;;6.10;99.10;;;;;;5035848;28;20871;-72
2020/12/18 05:41:06;;;;;;;24.83;12.97;;;6.20;99.00;;;;;;5037359;28;20488;-73
2020/12/18 05:43:39;;;;;;;25.67;13.77;;;6.20;98.70;;;;;;5037057;28;20938;-74
2020/12/18 05:46:20;;;;;;;26.63;13.93;;;6.00;97.80;;;;;;5037292;28;20424;-72
2020/12/18 05:49:03;;;;;;;32.00;15.17;;;5.80;98.10;;;;;;5036115;28;20740;-73
2020/12/18 05:51:36;;;;;;;27.13;15.50;;;5.60;98.30;;;;;;5038419;28;20436;-73
2020/12/18 05:54:17;;;;;;;28.00;15.20;;;5.50;98.40;;;;;;5037845;28;20778;-72
2020/12/18 05:56:45;;;;;;;24.67;13.73;;;5.50;98.60;;;;;;5033547;28;20442;-72
2020/12/18 05:59:15;;;;;;;30.17;14.97;;;5.50;98.80;;;;;;5032136;28;20470;-75
2020/12/18 06:01:43;;;;;;;25.07;13.60;;;5.50;99.00;;;;;;5030828;28;20443;-75
2020/12/18 06:04:11;;;;;;;26.60;15.60;;;5.60;98.80;;;;;;5022111;28;20942;-74
2020/12/18 06:06:50;;;;;;;23.60;14.17;;;5.60;98.70;;;;;;5024120;28;20416;-72
2020/12/18 06:09:27;;;;;;;26.77;14.73;;;5.60;98.60;;;;;;5011327;28;20930;-71
2020/12/18 06:11:53;;;;;;;25.07;13.90;;;5.60;98.50;;;;;;5011033;28;20517;-72
2020/12/18 06:14:19;;;;;;;29.73;14.07;;;5.70;98.50;;;;;;5010974;28;20437;-73
2020/12/18 06:16:53;;;;;;;28.40;14.93;;;5.70;98.50;;;;;;5009641;28;20280;-73
2020/12/18 06:19:22;;;;;;;29.90;15.07;;;5.60;98.50;;;;;;5014077;28;20472;-71
2020/12/18 06:21:57;;;;;;;29.83;14.80;;;5.60;98.60;;;;;;5025680;28;20515;-72
2020/12/18 06:24:23;;;;;;;26.87;14.83;;;5.60;98.70;;;;;;5011897;28;20438;-73
2020/12/18 06:26:57;;;;;;;26.60;13.13;;;5.60;98.70;;;;;;5012771;28;20420;-72
2020/12/18 06:29:25;;;;;;;24.83;13.13;;;5.60;98.70;;;;;;5010207;28;20432;-73
2020/12/18 06:31:52;;;;;;;24.10;13.77;;;5.60;99.00;;;;;;5020149;28;20475;-72
2020/12/18 06:34:28;;;;;;;20.40;12.40;;;5.60;99.10;;;;;;5029692;28;20436;-72
2020/12/18 06:36:57;;;;;;;22.10;13.03;;;5.60;99.30;;;;;;5026671;28;20427;-73
2020/12/18 06:39:22;;;;;;;26.40;13.33;;;5.60;99.40;;;;;;5048944;28;20479;-74
2020/12/18 06:42:08;;;;;;;23.43;12.50;;;5.70;99.60;;;;;;5034292;28;20467;-74
2020/12/18 06:44:35;;;;;;;26.53;14.23;;;5.70;99.70;;;;;;5033373;28;20201;-74
2020/12/18 06:47:07;;;;;;;24.00;14.00;;;5.80;99.70;;;;;;5018051;28;20436;-72
2020/12/18 06:49:55;;;;;;;24.60;13.47;;;5.80;99.70;;;;;;5032700;28;20519;-74
2020/12/18 06:52:41;;;;;;;25.80;15.00;;;5.80;99.80;;;;;;5029949;28;20455;-74
2020/12/18 06:55:30;;;;;;;33.70;14.70;;;5.90;99.90;;;;;;5028384;28;20471;-75
2020/12/18 06:58:17;;;;;;;26.17;14.37;;;5.90;99.70;;;;;;5020448;28;20451;-73
2020/12/18 07:00:54;;;;;;;22.33;14.10;;;6.00;99.40;;;;;;5016775;28;20535;-74
2020/12/18 07:03:37;;;;;;;25.50;14.47;;;6.00;99.10;;;;;;5029364;28;20423;-75
2020/12/18 07:06:31;;;;;;;26.00;13.70;;;6.00;98.80;;;;;;5012274;28;20583;-74
2020/12/18 07:08:57;;;;;;;23.00;12.97;;;6.10;98.70;;;;;;5018950;28;20431;-77
2020/12/18 07:11:24;;;;;;;29.30;14.17;;;6.00;98.50;;;;;;5031079;28;20823;-75
2020/12/18 07:13:51;;;;;;;25.23;13.20;;;6.00;98.70;;;;;;5031474;28;20435;-75
2020/12/18 07:16:20;;;;;;;27.20;14.23;;;6.10;98.80;;;;;;5029063;28;20483;-74
2020/12/18 07:18:48;;;;;;;29.63;12.90;;;6.10;98.70;;;;;;5030437;28;20439;-75
2020/12/18 07:21:16;;;;;;;23.77;12.77;;;6.10;98.40;;;;;;5018063;28;21818;-74
2020/12/18 07:23:47;;;;;;;21.53;12.83;;;6.10;98.30;;;;;;5021881;28;20512;-75
2020/12/18 07:26:14;;;;;;;23.73;12.40;;;6.20;98.20;;;;;;5013460;28;20582;-75
2020/12/18 07:28:41;;;;;;;20.53;11.90;;;6.20;98.10;;;;;;5032027;28;20451;-75
2020/12/18 07:31:15;;;;;;;27.20;12.83;;;6.20;98.20;;;;;;5021941;28;20455;-74
2020/12/18 07:33:41;;;;;;;27.97;12.00;;;6.20;98.10;;;;;;5022605;28;20945;-77
2020/12/18 07:36:09;;;;;;;26.60;12.53;;;6.20;98.10;;;;;;5017517;28;20461;-75
2020/12/18 07:38:35;;;;;;;29.60;15.77;;;6.30;98.30;;;;;;5026370;28;20415;-74
2020/12/18 07:41:08;;;;;;;24.60;14.20;;;6.40;98.10;;;;;;5014154;28;20476;-73
2020/12/18 07:43:35;;;;;;;26.43;13.77;;;6.50;98.00;;;;;;5018951;28;20201;-73
2020/12/18 07:46:07;;;;;;;22.77;12.37;;;6.50;97.90;;;;;;5057241;28;20970;-72
2020/12/18 07:48:35;;;;;;;23.83;12.93;;;6.50;97.80;;;;;;5028602;28;20511;-74
2020/12/18 07:51:11;;;;;;;28.13;13.60;;;6.50;97.80;;;;;;5011790;28;20511;-73
2020/12/18 07:53:42;;;;;;;21.63;13.27;;;6.60;97.70;;;;;;5009815;28;20511;-74
2020/12/18 07:56:08;;;;;;;22.43;11.70;;;6.70;97.50;;;;;;5016747;28;20527;-75
2020/12/18 07:58:44;;;;;;;24.37;12.27;;;6.70;97.40;;;;;;5014497;28;20894;-71
2020/12/18 08:01:16;;;;;;;21.20;12.37;;;6.80;97.30;;;;;;5009553;28;20260;-73
2020/12/18 08:04:03;;;;;;;20.37;11.07;;;6.90;97.20;;;;;;5026097;28;20955;-72
2020/12/18 08:06:30;;;;;;;21.20;11.50;;;6.90;97.00;;;;;;5028396;28;20923;-74
2020/12/18 08:09:11;;;;;;;19.50;11.03;;;6.90;96.80;;;;;;5022550;28;20432;-74
2020/12/18 08:11:45;;;;;;;26.07;13.47;;;7.00;96.80;;;;;;5025360;28;20448;-73
2020/12/18 08:14:12;;;;;;;27.03;11.50;;;7.10;96.70;;;;;;5017334;28;20517;-74
2020/12/18 08:16:39;;;;;;;32.77;13.77;;;7.10;96.50;;;;;;5019063;28;20464;-75
2020/12/18 08:19:10;;;;;;;27.37;12.20;;;7.20;96.30;;;;;;5009809;28;20979;-73
2020/12/18 08:21:40;;;;;;;20.60;11.50;;;7.20;96.00;;;;;;5022497;28;20453;-72
2020/12/18 08:24:31;;;;;;;22.87;12.43;;;7.20;96.00;;;;;;5028260;28;20428;-74
2020/12/18 08:27:21;;;;;;;21.20;12.40;;;7.30;95.90;;;;;;5028353;28;20470;-74
2020/12/18 08:29:48;;;;;;;20.63;11.80;;;7.40;95.80;;;;;;5028539;28;20456;-75
2020/12/18 08:32:27;;;;;;;20.37;11.63;;;7.50;95.80;;;;;;5027554;28;20555;-75
2020/12/18 08:35:07;;;;;;;24.20;13.43;;;7.60;95.40;;;;;;5008205;28;20428;-71
2020/12/18 08:37:33;;;;;;;25.40;12.90;;;7.70;95.20;;;;;;5024734;28;20860;-75
2020/12/18 08:39:59;;;;;;;21.80;12.53;;;7.70;95.00;;;;;;5027860;28;20475;-75
2020/12/18 08:42:25;;;;;;;27.80;12.63;;;7.80;94.80;;;;;;5028051;28;20509;-73
2020/12/18 08:44:51;;;;;;;21.40;11.27;;;7.80;94.40;;;;;;5028277;28;20424;-74
2020/12/18 08:47:27;;;;;;;59.53;25.47;;;7.90;94.10;;;;;;5027174;28;20431;-76
2020/12/18 08:49:55;;;;;;;27.83;16.00;;;7.90;93.80;;;;;;5027653;28;20193;-71
2020/12/18 08:52:28;;;;;;;39.73;19.70;;;7.90;93.80;;;;;;5028618;28;20513;-73
2020/12/18 08:55:03;;;;;;;65.70;29.83;;;7.90;93.80;;;;;;5026759;28;20467;-73
2020/12/18 08:57:30;;;;;;;42.90;23.23;;;8.00;93.60;;;;;;5032780;28;20812;-74
2020/12/18 09:00:09;;;;;;;36.10;19.70;;;8.00;93.50;;;;;;5033547;28;21259;-72
2020/12/18 09:02:49;;;;;;;33.90;18.90;;;8.10;93.60;;;;;;5021499;28;20433;-74
2020/12/18 09:05:42;;;;;;;30.90;16.93;;;8.20;93.10;;;;;;5037325;28;20415;-72
2020/12/18 09:08:21;;;;;;;70.10;33.27;;;8.30;93.10;;;;;;5042813;28;20407;-72
2020/12/18 09:10:59;;;;;;;73.50;34.00;;;8.30;92.80;;;;;;5033702;28;20602;-76
2020/12/18 09:13:28;;;;;;;49.33;22.93;;;8.40;92.50;;;;;;5027943;28;20416;-74
2020/12/18 09:16:08;;;;;;;37.53;19.63;;;8.40;92.50;;;;;;5012577;28;20416;-75
2020/12/18 09:18:36;;;;;;;37.93;22.23;;;8.40;92.30;;;;;;5019571;28;20799;-72
2020/12/18 09:21:13;;;;;;;41.50;21.57;;;8.50;92.20;;;;;;5032577;28;21021;-77
2020/12/18 09:23:40;;;;;;;34.23;17.67;;;8.40;92.40;;;;;;5032746;28;20449;-75
2020/12/18 09:26:05;;;;;;;32.70;17.53;;;8.50;92.50;;;;;;5018727;28;20432;-72
2020/12/18 09:28:42;;;;;;;39.33;18.17;;;8.50;92.40;;;;;;5023954;28;20436;-72
2020/12/18 09:31:09;;;;;;;32.53;15.73;;;8.50;92.10;;;;;;5035060;28;20695;-75
2020/12/18 09:33:37;;;;;;;27.70;16.20;;;8.50;92.10;;;;;;5036374;28;20424;-76
2020/12/18 09:36:05;;;;;;;29.30;15.50;;;8.40;92.20;;;;;;5032026;28;20435;-73
2020/12/18 09:38:36;;;;;;;28.30;14.87;;;8.40;92.40;;;;;;5024981;28;20429;-74
2020/12/18 09:41:09;;;;;;;24.47;13.67;;;8.40;92.40;;;;;;5029274;28;21329;-75
2020/12/18 09:43:35;;;;;;;27.23;14.83;;;8.30;92.60;;;;;;5032425;28;20550;-73
2020/12/18 09:46:00;;;;;;;25.03;12.90;;;8.40;92.70;;;;;;5031459;28;20477;-75
2020/12/18 09:48:27;;;;;;;34.70;12.97;;;8.40;92.60;;;;;;5031778;28;20424;-74
2020/12/18 09:50:58;;;;;;;24.83;12.83;;;8.40;92.60;;;;;;5030199;28;20830;-72
2020/12/18 09:53:27;;;;;;;27.27;12.27;;;8.40;92.70;;;;;;5030190;28;20444;-73
2020/12/18 09:55:53;;;;;;;25.07;13.20;;;8.50;92.60;;;;;;5032243;28;20428;-76
2020/12/18 09:58:20;;;;;;;24.10;13.43;;;8.50;92.60;;;;;;5034744;28;20438;-74
2020/12/18 10:00:47;;;;;;;23.57;12.30;;;8.50;92.60;;;;;;5036399;28;20467;-72
2020/12/18 10:03:12;;;;;;;24.57;12.57;;;8.60;92.40;;;;;;5033315;28;20412;-73
2020/12/18 10:05:38;;;;;;;31.60;13.50;;;8.60;92.50;;;;;;5031430;28;20424;-71
2020/12/18 10:08:04;;;;;;;23.57;12.70;;;8.70;92.40;;;;;;5029753;28;20439;-76
2020/12/18 10:10:30;;;;;;;22.60;13.80;;;8.80;92.40;;;;;;5031506;28;20561;-73
2020/12/18 10:12:58;;;;;;;29.63;13.73;;;8.90;92.00;;;;;;5030307;28;20834;-73
2020/12/18 10:15:24;;;;;;;25.77;13.97;;;8.90;91.60;;;;;;5029244;28;20460;-74
2020/12/18 10:17:50;;;;;;;25.47;12.80;;;8.90;91.40;;;;;;5031422;28;20462;-74
2020/12/18 10:20:16;;;;;;;23.03;14.37;;;8.80;91.60;;;;;;5029925;28;20464;-73
2020/12/18 10:22:42;;;;;;;28.30;13.87;;;8.80;91.60;;;;;;5030887;28;20462;-74
2020/12/18 10:25:08;;;;;;;32.10;13.97;;;8.80;91.90;;;;;;5030456;28;20448;-75
2020/12/18 10:27:35;;;;;;;24.87;14.00;;;8.80;91.70;;;;;;5031985;28;20606;-72
2020/12/18 10:30:01;;;;;;;29.13;14.33;;;8.70;91.80;;;;;;5032544;28;20428;-75
2020/12/18 10:32:28;;;;;;;26.10;15.80;;;8.70;92.00;;;;;;5031865;28;20850;-76
2020/12/18 10:34:54;;;;;;;29.97;15.00;;;8.70;92.10;;;;;;5032407;28;21077;-76
2020/12/18 10:37:21;;;;;;;24.07;13.57;;;8.70;92.30;;;;;;5034307;28;20420;-75
2020/12/18 10:39:47;;;;;;;24.33;15.03;;;8.70;92.40;;;;;;5033286;28;20470;-75
2020/12/18 10:42:13;;;;;;;25.87;14.30;;;8.80;92.50;;;;;;5031401;28;20455;-77
2020/12/18 10:44:39;;;;;;;27.37;14.30;;;8.90;92.40;;;;;;5033556;28;20436;-74
2020/12/18 10:47:05;;;;;;;25.93;14.00;;;9.10;92.20;;;;;;5040070;28;20191;-76
2020/12/18 10:49:31;;;;;;;29.53;14.57;;;9.30;91.30;;;;;;5035595;28;20431;-75
2020/12/18 10:51:57;;;;;;;24.87;14.73;;;9.50;90.80;;;;;;5020600;28;20209;-72
2020/12/18 10:54:22;;;;;;;25.40;13.03;;;9.80;90.90;;;;;;5026338;28;20519;-74
2020/12/18 10:56:50;;;;;;;24.27;13.83;;;10.10;91.30;;;;;;5035884;28;20486;-76
2020/12/18 10:59:16;;;;;;;21.83;13.10;;;10.40;90.90;;;;;;5032162;28;20679;-73
2020/12/18 11:01:41;;;;;;;20.90;13.60;;;10.70;90.10;;;;;;5030961;28;20444;-75
2020/12/18 11:04:07;;;;;;;23.60;13.07;;;11.00;88.60;;;;;;5031386;28;20602;-76
2020/12/18 11:06:38;;;;;;;30.60;13.90;;;11.10;86.50;;;;;;5030037;28;20276;-74
2020/12/18 11:09:04;;;;;;;23.37;13.43;;;11.10;84.60;;;;;;5032690;28;20578;-75
2020/12/18 11:11:30;;;;;;;28.77;13.47;;;11.10;83.60;;;;;;5031551;28;20436;-75
2020/12/18 11:13:57;;;;;;;22.23;13.03;;;11.00;83.40;;;;;;5030666;28;20439;-74
2020/12/18 11:16:23;;;;;;;21.73;12.60;;;10.90;83.80;;;;;;5014562;28;20182;-74
2020/12/18 11:18:49;;;;;;;22.37;13.00;;;10.80;84.60;;;;;;5019924;28;20423;-75
2020/12/18 11:21:15;;;;;;;22.53;12.40;;;10.70;85.00;;;;;;5014903;28;20483;-75
2020/12/18 11:23:41;;;;;;;23.83;13.20;;;10.60;85.60;;;;;;5010883;28;20177;-75
2020/12/18 11:26:07;;;;;;;23.17;12.57;;;10.60;85.70;;;;;;5012751;28;20428;-74
2020/12/18 11:28:33;;;;;;;21.27;12.70;;;10.50;86.00;;;;;;5031247;28;20431;-74
2020/12/18 11:31:03;;;;;;;21.90;13.40;;;10.40;86.30;;;;;;5030674;28;20216;-75
2020/12/18 11:33:28;;;;;;;23.23;14.60;;;10.30;86.60;;;;;;5028845;28;20457;-76
2020/12/18 11:35:55;;;;;;;22.63;12.80;;;10.30;86.90;;;;;;5029779;28;20455;-74
2020/12/18 11:38:21;;;;;;;22.00;13.00;;;10.20;87.30;;;;;;5030792;28;20200;-74
2020/12/18 11:40:47;;;;;;;23.00;12.40;;;10.20;87.60;;;;;;5032010;28;20468;-76
2020/12/18 11:43:13;;;;;;;22.43;13.20;;;10.20;88.00;;;;;;5030622;28;20454;-75
2020/12/18 11:45:39;;;;;;;21.07;12.70;;;10.20;88.10;;;;;;5029903;28;20733;-76
2020/12/18 11:48:05;;;;;;;22.37;13.40;;;10.20;87.80;;;;;;5030532;28;20427;-73
2020/12/18 11:50:31;;;;;;;24.50;13.97;;;10.20;87.80;;;;;;5028870;28;20268;-76
2020/12/18 11:52:58;;;;;;;25.13;13.70;;;10.20;87.80;;;;;;5029777;28;20684;-72
2020/12/18 11:55:24;;;;;;;24.60;13.93;;;10.30;87.80;;;;;;5032036;28;20419;-75
2020/12/18 11:57:50;;;;;;;29.93;16.40;;;10.40;87.40;;;;;;5032827;28;20432;-75
2020/12/18 12:00:19;;;;;;;21.87;13.13;;;10.40;87.10;;;;;;5029724;28;20463;-74
2020/12/18 12:02:49;;;;;;;21.00;13.50;;;10.50;86.80;;;;;;5028345;28;20465;-75
2020/12/18 12:05:16;;;;;;;25.93;14.07;;;10.50;86.80;;;;;;5027861;28;20437;-75
2020/12/18 12:07:43;;;;;;;21.90;13.73;;;10.50;86.90;;;;;;5031499;28;20507;-74
2020/12/18 12:10:09;;;;;;;29.30;13.70;;;10.50;86.80;;;;;;5030593;28;20802;-73
2020/12/18 12:12:35;;;;;;;24.10;14.43;;;10.50;86.50;;;;;;5032473;28;20511;-74
2020/12/18 12:15:02;;;;;;;24.60;14.13;;;10.50;86.50;;;;;;5025250;28;20506;-74
2020/12/18 12:17:28;;;;;;;24.00;12.30;;;10.60;86.30;;;;;;5021626;28;20189;-75
2020/12/18 12:19:54;;;;;;;23.17;12.63;;;10.60;86.50;;;;;;5013186;28;20457;-74
2020/12/18 12:22:20;;;;;;;23.60;13.97;;;10.60;86.30;;;;;;5009323;28;20441;-75
2020/12/18 12:24:45;;;;;;;22.37;14.20;;;10.60;86.60;;;;;;5007442;28;20625;-75
2020/12/18 12:27:12;;;;;;;22.57;12.97;;;10.60;86.80;;;;;;5021953;28;20208;-73
2020/12/18 12:29:38;;;;;;;27.90;12.57;;;10.70;86.60;;;;;;5011221;28;20694;-74
2020/12/18 12:32:07;;;;;;;20.00;12.53;;;10.80;86.60;;;;;;5023999;28;20436;-75
2020/12/18 12:34:33;;;;;;;24.63;13.47;;;10.80;86.60;;;;;;5032690;28;21509;-73
2020/12/18 12:37:00;;;;;;;24.37;13.80;;;10.80;86.50;;;;;;5034001;28;20428;-76
2020/12/18 12:39:26;;;;;;;25.43;13.67;;;11.00;85.20;;;;;;5019518;28;20749;-74
2020/12/18 12:41:52;;;;;;;24.93;14.27;;;11.10;85.20;;;;;;5033140;28;20684;-74